Time;durP1;ratioP1;P1;durP2;ratioP2;P2;SDS_P1;SDS_P2;PMS_P1;PMS_P2;Temp;Humidity;BMP_temperature;BMP_pressure;BME280_temperature;BME280_humidity;BME280_pressure;Samples;Min_cycle;Max_cycle;Signal;HPM_P1;HPM_P2
2022/01/18 00:01:20;;;;;;;4.80;2.33;;;;;;;;;;6192508;23;20231;-67
2022/01/18 00:03:48;;;;;;;9.80;2.60;;;;;;;;;;6217535;23;20180;-67
2022/01/18 00:06:15;;;;;;;3.93;2.00;;;;;;;;;;6217209;23;20204;-67
2022/01/18 00:08:42;;;;;;;10.63;2.30;;;;;;;;;;6217302;23;20188;-67
2022/01/18 00:11:10;;;;;;;10.23;2.73;;;;;;;;;;6217161;23;20191;-67
2022/01/18 00:18:35;;;;;;;6.97;2.07;;;;;;;;;;6216684;23;20608;-67
2022/01/18 00:23:52;;;;;;;5.23;2.50;;;;;;;;;;6217261;23;20169;-67
2022/01/18 00:26:19;;;;;;;10.07;2.07;;;;;;;;;;6217345;23;20175;-67
2022/01/18 00:28:54;;;;;;;8.80;2.80;;;;;;;;;;6216452;23;20524;-67
2022/01/18 00:34:13;;;;;;;10.10;2.27;;;;;;;;;;6217108;23;20168;-67
2022/01/18 00:39:14;;;;;;;8.50;2.17;;;;;;;;;;6217089;23;20175;-67
2022/01/18 00:41:42;;;;;;;4.47;2.20;;;;;;;;;;6216807;23;20204;-67
2022/01/18 00:44:10;;;;;;;8.33;2.60;;;;;;;;;;6216888;23;20176;-67
2022/01/18 00:46:39;;;;;;;5.40;2.37;;;;;;;;;;6216501;23;20180;-67
2022/01/18 00:49:07;;;;;;;8.13;2.73;;;;;;;;;;6216874;23;20206;-67
2022/01/18 00:51:38;;;;;;;14.77;2.23;;;;;;;;;;6216760;23;20176;-67
2022/01/18 00:54:07;;;;;;;10.13;2.30;;;;;;;;;;6226747;23;20165;-67
2022/01/18 00:56:39;;;;;;;4.27;1.90;;;;;;;;;;6190773;23;20257;-67
2022/01/18 00:59:07;;;;;;;4.63;1.93;;;;;;;;;;6216398;23;20168;-67
2022/01/18 01:01:36;;;;;;;12.00;2.33;;;;;;;;;;6216621;23;20287;-67
2022/01/18 01:04:05;;;;;;;11.80;3.27;;;;;;;;;;6216333;23;20701;-67
2022/01/18 01:06:33;;;;;;;6.27;1.80;;;;;;;;;;6216702;23;20191;-67
2022/01/18 01:09:01;;;;;;;8.07;1.77;;;;;;;;;;6216670;23;20567;-67
2022/01/18 01:11:29;;;;;;;5.77;2.27;;;;;;;;;;6216708;23;20298;-67
2022/01/18 01:13:59;;;;;;;8.30;2.13;;;;;;;;;;6216812;23;20180;-66
2022/01/18 01:43:27;;;;;;;5.37;2.00;;;;;;;;;;6226141;23;20168;-67
2022/01/18 01:45:56;;;;;;;5.60;1.73;;;;;;;;;;6216512;23;20168;-67
2022/01/18 01:48:24;;;;;;;7.97;2.10;;;;;;;;;;6216353;23;20180;-67
2022/01/18 01:51:03;;;;;;;4.10;1.73;;;;;;;;;;6216359;23;20195;-67
2022/01/18 01:53:32;;;;;;;6.00;1.63;;;;;;;;;;6216438;23;20174;-67
2022/01/18 01:56:00;;;;;;;7.70;1.97;;;;;;;;;;6216500;23;20200;-67
2022/01/18 01:58:28;;;;;;;7.43;2.07;;;;;;;;;;6189995;23;20187;-67
2022/01/18 02:00:58;;;;;;;4.30;1.83;;;;;;;;;;6189373;23;20662;-67
2022/01/18 02:03:26;;;;;;;4.20;1.90;;;;;;;;;;6189605;23;20553;-67
2022/01/18 02:05:53;;;;;;;7.47;2.07;;;;;;;;;;6216106;23;20184;-67
2022/01/18 02:08:21;;;;;;;7.97;1.70;;;;;;;;;;6189894;23;20714;-67
2022/01/18 02:10:48;;;;;;;10.13;2.57;;;;;;;;;;6189969;23;20649;-67
2022/01/18 02:13:16;;;;;;;11.77;2.07;;;;;;;;;;6215932;23;20558;-67
2022/01/18 02:23:56;;;;;;;3.90;1.60;;;;;;;;;;6216183;23;20243;-67
2022/01/18 02:26:24;;;;;;;5.23;1.97;;;;;;;;;;6216170;23;20184;-67
2022/01/18 02:28:51;;;;;;;5.87;2.10;;;;;;;;;;6215543;23;20666;-67
2022/01/18 02:31:19;;;;;;;4.50;1.90;;;;;;;;;;6215704;23;20642;-67
2022/01/18 02:33:46;;;;;;;7.37;2.17;;;;;;;;;;6215594;23;20571;-68
2022/01/18 02:36:13;;;;;;;9.13;2.40;;;;;;;;;;6215954;23;20180;-67
2022/01/18 02:38:41;;;;;;;8.90;2.03;;;;;;;;;;6215986;23;20187;-67
2022/01/18 02:41:08;;;;;;;7.53;1.83;;;;;;;;;;6215542;23;20678;-67
2022/01/18 02:46:17;;;;;;;5.13;2.00;;;;;;;;;;6225830;23;20188;-67
2022/01/18 02:48:44;;;;;;;7.53;1.73;;;;;;;;;;6215984;23;20180;-67
2022/01/18 02:51:13;;;;;;;11.77;2.13;;;;;;;;;;6215933;23;20184;-67
2022/01/18 02:54:00;;;;;;;4.40;2.20;;;;;;;;;;6215992;23;20184;-67
2022/01/18 02:56:32;;;;;;;7.83;2.47;;;;;;;;;;6225787;23;20529;-67
2022/01/18 02:59:23;;;;;;;6.70;1.60;;;;;;;;;;6225743;23;20560;-67
2022/01/18 03:04:40;;;;;;;8.57;1.83;;;;;;;;;;6216084;23;20218;-67
2022/01/18 03:07:08;;;;;;;8.67;2.27;;;;;;;;;;6189851;23;20490;-67
2022/01/18 03:09:35;;;;;;;9.13;2.30;;;;;;;;;;6216028;23;20185;-67
2022/01/18 03:12:04;;;;;;;7.07;2.03;;;;;;;;;;6215961;23;20202;-67
2022/01/18 03:14:32;;;;;;;4.77;1.80;;;;;;;;;;6215703;23;20654;-67
2022/01/18 03:17:00;;;;;;;4.73;1.77;;;;;;;;;;6215813;23;20267;-67
2022/01/18 03:19:27;;;;;;;4.10;1.67;;;;;;;;;;6215903;23;20180;-67
2022/01/18 03:21:58;;;;;;;4.83;1.77;;;;;;;;;;6215543;23;20655;-67
2022/01/18 03:29:34;;;;;;;7.23;2.23;;;;;;;;;;6207309;23;20251;-67
2022/01/18 03:32:02;;;;;;;6.43;1.60;;;;;;;;;;6217952;23;20187;-68
2022/01/18 03:34:29;;;;;;;8.77;2.10;;;;;;;;;;6217739;23;20242;-67
2022/01/18 03:36:57;;;;;;;7.03;2.00;;;;;;;;;;6217594;23;20184;-67
2022/01/18 03:39:24;;;;;;;4.57;1.90;;;;;;;;;;6217611;23;20255;-67
2022/01/18 03:41:54;;;;;;;4.87;1.93;;;;;;;;;;6217374;23;20239;-67
2022/01/18 03:44:25;;;;;;;6.17;2.37;;;;;;;;;;6217520;23;20186;-67
2022/01/18 03:46:53;;;;;;;9.17;1.67;;;;;;;;;;6217621;23;20186;-67
2022/01/18 03:49:23;;;;;;;5.93;2.10;;;;;;;;;;6217087;23;20507;-67
2022/01/18 03:51:51;;;;;;;6.33;1.27;;;;;;;;;;6216105;23;20173;-67
2022/01/18 03:54:22;;;;;;;11.00;2.03;;;;;;;;;;6217447;23;20181;-67
2022/01/18 03:56:50;;;;;;;5.17;1.43;;;;;;;;;;6217162;23;20215;-67
2022/01/18 03:59:17;;;;;;;5.77;1.80;;;;;;;;;;6217241;23;20186;-67
2022/01/18 04:01:45;;;;;;;6.33;1.80;;;;;;;;;;6215444;23;20204;-67
2022/01/18 04:04:13;;;;;;;8.70;2.07;;;;;;;;;;6216929;23;20682;-67
2022/01/18 04:06:40;;;;;;;7.40;1.83;;;;;;;;;;6217410;23;20203;-67
2022/01/18 04:09:08;;;;;;;5.90;1.87;;;;;;;;;;6217405;23;20182;-67
2022/01/18 04:11:35;;;;;;;6.27;1.80;;;;;;;;;;6216897;23;20184;-67
2022/01/18 04:14:02;;;;;;;9.70;2.47;;;;;;;;;;6217158;23;20510;-67
2022/01/18 04:16:30;;;;;;;8.93;2.20;;;;;;;;;;6217080;23;20470;-68
2022/01/18 04:19:21;;;;;;;6.27;2.20;;;;;;;;;;6217294;23;20180;-67
2022/01/18 04:27:25;;;;;;;5.63;1.77;;;;;;;;;;6162288;23;20181;-67
2022/01/18 04:29:52;;;;;;;6.13;2.33;;;;;;;;;;6216633;23;20204;-67
2022/01/18 04:32:20;;;;;;;6.47;1.90;;;;;;;;;;6217062;23;20628;-67
2022/01/18 04:34:47;;;;;;;8.43;2.07;;;;;;;;;;6216861;23;20180;-68
2022/01/18 04:37:14;;;;;;;7.93;2.57;;;;;;;;;;6216977;23;20238;-67
2022/01/18 04:39:43;;;;;;;6.80;2.17;;;;;;;;;;6217083;23;20259;-67
2022/01/18 04:42:19;;;;;;;7.17;2.33;;;;;;;;;;6216953;23;20286;-67
2022/01/18 04:50:09;;;;;;;12.43;2.10;;;;;;;;;;6216844;23;20168;-67
2022/01/18 04:52:36;;;;;;;10.73;2.93;;;;;;;;;;6216547;23;20561;-67
2022/01/18 04:55:04;;;;;;;3.00;1.70;;;;;;;;;;6190059;23;20184;-67
2022/01/18 05:00:14;;;;;;;6.47;2.60;;;;;;;;;;6216709;23;20243;-68
2022/01/18 05:02:42;;;;;;;5.07;2.13;;;;;;;;;;6190808;23;20204;-67
2022/01/18 05:05:11;;;;;;;5.33;1.90;;;;;;;;;;6216826;23;20183;-68
2022/01/18 05:07:39;;;;;;;6.40;2.00;;;;;;;;;;6216675;23;20282;-67
2022/01/18 05:10:06;;;;;;;3.93;2.00;;;;;;;;;;6187517;23;20184;-65
2022/01/18 05:12:43;;;;;;;4.90;1.83;;;;;;;;;;6215927;23;20180;-66
2022/01/18 05:15:35;;;;;;;9.77;2.63;;;;;;;;;;6215361;23;20172;-66
2022/01/18 05:20:56;;;;;;;8.93;2.93;;;;;;;;;;6188519;23;20168;-65
2022/01/18 05:23:26;;;;;;;3.13;1.80;;;;;;;;;;6216339;23;20184;-65
2022/01/18 05:25:53;;;;;;;5.50;2.00;;;;;;;;;;6215180;23;20225;-65
2022/01/18 05:28:20;;;;;;;9.57;2.70;;;;;;;;;;6215623;23;20204;-66
2022/01/18 05:30:48;;;;;;;6.87;2.20;;;;;;;;;;6215604;23;20481;-66
2022/01/18 05:33:15;;;;;;;8.30;2.93;;;;;;;;;;6215962;23;20176;-67
2022/01/18 05:35:42;;;;;;;8.20;2.37;;;;;;;;;;6215947;23;20189;-67
2022/01/18 05:38:10;;;;;;;8.00;3.30;;;;;;;;;;6215864;23;20259;-66
2022/01/18 05:40:37;;;;;;;6.37;1.90;;;;;;;;;;6188919;23;20302;-67
2022/01/18 05:43:05;;;;;;;12.23;2.73;;;;;;;;;;6215624;23;20204;-67
2022/01/18 05:45:33;;;;;;;8.70;2.10;;;;;;;;;;6215633;23;20184;-67
2022/01/18 05:48:01;;;;;;;6.10;2.00;;;;;;;;;;6215517;23;20226;-67
2022/01/18 05:50:28;;;;;;;8.70;2.60;;;;;;;;;;6215711;23;20180;-67
2022/01/18 05:52:55;;;;;;;6.07;2.83;;;;;;;;;;6215627;23;20184;-67
2022/01/18 05:55:23;;;;;;;8.70;2.73;;;;;;;;;;6215011;23;20180;-66
2022/01/18 05:57:50;;;;;;;9.70;3.37;;;;;;;;;;6215882;23;20230;-67
2022/01/18 06:00:23;;;;;;;13.13;3.07;;;;;;;;;;6215918;23;20259;-67
2022/01/18 06:08:14;;;;;;;6.57;2.83;;;;;;;;;;6225457;23;20241;-66
2022/01/18 06:10:41;;;;;;;7.23;3.07;;;;;;;;;;6214919;23;20184;-66
2022/01/18 06:13:09;;;;;;;8.87;2.57;;;;;;;;;;6215750;23;20238;-65
2022/01/18 06:15:36;;;;;;;5.07;2.83;;;;;;;;;;6215514;23;20179;-65
2022/01/18 06:18:04;;;;;;;10.70;2.97;;;;;;;;;;6189483;23;20257;-66
2022/01/18 06:20:32;;;;;;;9.33;3.00;;;;;;;;;;6215648;23;20184;-66
2022/01/18 06:23:00;;;;;;;6.60;3.00;;;;;;;;;;6214934;23;20532;-66
2022/01/18 06:25:28;;;;;;;13.53;3.67;;;;;;;;;;6188615;23;20184;-66
2022/01/18 06:27:56;;;;;;;9.07;3.17;;;;;;;;;;6215419;23;20184;-66
2022/01/18 06:30:23;;;;;;;6.27;2.77;;;;;;;;;;6216257;23;20160;-66
2022/01/18 06:32:50;;;;;;;9.23;4.00;;;;;;;;;;6215623;23;20214;-66
2022/01/18 06:35:18;;;;;;;13.90;3.93;;;;;;;;;;6189143;23;20186;-67
2022/01/18 06:37:45;;;;;;;12.23;3.27;;;;;;;;;;6215192;23;20502;-66
2022/01/18 06:40:13;;;;;;;13.07;3.40;;;;;;;;;;6214481;23;20641;-66
2022/01/18 06:42:41;;;;;;;10.70;3.83;;;;;;;;;;6215413;23;20207;-66
2022/01/18 06:45:09;;;;;;;14.07;3.90;;;;;;;;;;6215375;23;20180;-66
2022/01/18 06:47:38;;;;;;;12.93;3.30;;;;;;;;;;6215549;23;20184;-66
2022/01/18 06:50:06;;;;;;;13.50;4.33;;;;;;;;;;6215357;23;20705;-66
2022/01/18 06:52:34;;;;;;;7.67;2.30;;;;;;;;;;6215100;23;20654;-66
2022/01/18 06:55:02;;;;;;;13.63;3.97;;;;;;;;;;6214828;23;20267;-65
2022/01/18 06:57:29;;;;;;;8.23;2.90;;;;;;;;;;6215807;23;20188;-66
2022/01/18 06:59:56;;;;;;;7.53;2.87;;;;;;;;;;6189444;23;20180;-66
2022/01/18 07:02:24;;;;;;;10.50;3.37;;;;;;;;;;6191179;23;20200;-66
2022/01/18 07:04:51;;;;;;;15.20;4.77;;;;;;;;;;6217924;23;20180;-66
2022/01/18 07:07:18;;;;;;;6.40;2.20;;;;;;;;;;6217802;23;20196;-66
2022/01/18 07:09:45;;;;;;;11.77;3.17;;;;;;;;;;6216788;23;20184;-65
2022/01/18 07:12:13;;;;;;;8.33;3.40;;;;;;;;;;6217302;23;20600;-67
2022/01/18 07:14:41;;;;;;;5.97;3.27;;;;;;;;;;6217727;23;20187;-66
2022/01/18 07:17:08;;;;;;;8.93;3.07;;;;;;;;;;6217682;23;20186;-66
2022/01/18 07:19:37;;;;;;;8.33;3.00;;;;;;;;;;6217637;23;20208;-68
2022/01/18 07:22:05;;;;;;;11.40;3.53;;;;;;;;;;6217525;23;20526;-67
2022/01/18 07:24:44;;;;;;;26.10;3.30;;;;;;;;;;6216818;23;20206;-66
2022/01/18 07:27:14;;;;;;;9.00;3.50;;;;;;;;;;6227438;23;20199;-63
2022/01/18 07:29:43;;;;;;;6.50;2.57;;;;;;;;;;6217002;23;20216;-65
2022/01/18 07:32:11;;;;;;;3.53;1.87;;;;;;;;;;6190874;23;20561;-64
2022/01/18 07:34:51;;;;;;;7.43;2.70;;;;;;;;;;6217543;23;20187;-64
2022/01/18 07:37:20;;;;;;;4.20;2.37;;;;;;;;;;6227291;23;20179;-65
2022/01/18 07:39:49;;;;;;;7.93;3.03;;;;;;;;;;6190318;23;20176;-65
2022/01/18 07:42:16;;;;;;;7.73;3.17;;;;;;;;;;6217079;23;20275;-64
2022/01/18 07:44:44;;;;;;;8.83;2.80;;;;;;;;;;6217011;23;20547;-67
2022/01/18 07:47:11;;;;;;;9.73;3.20;;;;;;;;;;6191112;23;20184;-68
2022/01/18 07:49:44;;;;;;;17.13;3.93;;;;;;;;;;6217418;23;20175;-66
2022/01/18 07:52:11;;;;;;;14.23;4.60;;;;;;;;;;6217212;23;20249;-67
2022/01/18 07:54:39;;;;;;;11.83;3.57;;;;;;;;;;6216554;23;20180;-63
2022/01/18 07:57:13;;;;;;;14.77;3.83;;;;;;;;;;6217278;23;20172;-67
2022/01/18 07:59:40;;;;;;;6.37;2.40;;;;;;;;;;6217006;23;20619;-67
2022/01/18 08:02:07;;;;;;;8.83;3.63;;;;;;;;;;6216764;23;20196;-65
2022/01/18 08:04:35;;;;;;;9.27;3.37;;;;;;;;;;6217171;23;20238;-67
2022/01/18 08:07:03;;;;;;;12.90;4.70;;;;;;;;;;6217261;23;20566;-67
2022/01/18 08:09:30;;;;;;;10.83;3.87;;;;;;;;;;6216085;23;20199;-68
2022/01/18 08:11:57;;;;;;;13.13;3.40;;;;;;;;;;6190841;23;20180;-72
2022/01/18 08:14:29;;;;;;;8.40;3.60;;;;;;;;;;6190501;23;20180;-68
2022/01/18 08:17:04;;;;;;;5.20;2.40;;;;;;;;;;6201805;23;20168;-70
2022/01/18 08:19:34;;;;;;;11.23;3.90;;;;;;;;;;6217055;23;20553;-71
2022/01/18 08:22:08;;;;;;;9.43;2.93;;;;;;;;;;6191916;23;20192;-66
2022/01/18 08:24:36;;;;;;;9.13;3.13;;;;;;;;;;6215976;23;20603;-72
2022/01/18 08:27:04;;;;;;;13.43;3.53;;;;;;;;;;6217016;23;20180;-68
2022/01/18 08:29:31;;;;;;;7.33;3.13;;;;;;;;;;6216637;23;20262;-66
2022/01/18 08:32:16;;;;;;;8.17;2.90;;;;;;;;;;6226883;23;20221;-70
2022/01/18 08:34:44;;;;;;;8.17;3.30;;;;;;;;;;6190413;23;20255;-69
2022/01/18 08:37:11;;;;;;;6.93;2.33;;;;;;;;;;6217023;23;20259;-69
2022/01/18 08:39:38;;;;;;;9.47;2.50;;;;;;;;;;6216162;23;20180;-68
2022/01/18 08:42:06;;;;;;;4.80;1.87;;;;;;;;;;6216659;23;20481;-65
2022/01/18 08:44:34;;;;;;;11.33;2.90;;;;;;;;;;6216360;23;20645;-70
2022/01/18 08:47:03;;;;;;;7.77;2.77;;;;;;;;;;6216876;23;20231;-68
2022/01/18 08:49:30;;;;;;;7.17;2.80;;;;;;;;;;6216614;23;20673;-73
2022/01/18 08:51:57;;;;;;;7.23;2.63;;;;;;;;;;6216684;23;20207;-64
2022/01/18 08:54:25;;;;;;;4.43;2.13;;;;;;;;;;6215762;23;20186;-67
2022/01/18 08:56:52;;;;;;;6.40;2.10;;;;;;;;;;6216669;23;20637;-71
2022/01/18 08:59:22;;;;;;;9.37;3.23;;;;;;;;;;6216398;23;20250;-67
2022/01/18 09:01:50;;;;;;;7.73;2.23;;;;;;;;;;6216625;23;20650;-68
2022/01/18 09:04:19;;;;;;;9.40;2.53;;;;;;;;;;6216526;23;20290;-65
2022/01/18 09:06:50;;;;;;;6.33;2.37;;;;;;;;;;6216430;23;20689;-67
2022/01/18 09:09:18;;;;;;;6.93;2.43;;;;;;;;;;6215838;23;20175;-69
2022/01/18 09:11:46;;;;;;;7.40;2.80;;;;;;;;;;6216054;23;20184;-69
2022/01/18 09:14:15;;;;;;;6.37;2.47;;;;;;;;;;6216458;23;20184;-73
2022/01/18 09:16:43;;;;;;;11.70;2.70;;;;;;;;;;6216549;23;20180;-70
2022/01/18 09:19:11;;;;;;;4.40;2.37;;;;;;;;;;6190286;23;20255;-69
2022/01/18 09:21:38;;;;;;;4.00;1.87;;;;;;;;;;6216259;23;20183;-66
2022/01/18 09:24:06;;;;;;;6.60;2.30;;;;;;;;;;6215200;23;20207;-69
2022/01/18 09:26:33;;;;;;;5.87;2.13;;;;;;;;;;6216411;23;20180;-67
2022/01/18 09:29:00;;;;;;;3.23;1.57;;;;;;;;;;6216248;23;20584;-68
2022/01/18 09:31:29;;;;;;;4.87;3.47;;;;;;;;;;6216042;23;20226;-68
2022/01/18 09:33:56;;;;;;;3.63;1.60;;;;;;;;;;6216062;23;20187;-68
2022/01/18 09:36:24;;;;;;;5.30;1.83;;;;;;;;;;6216340;23;20180;-68
2022/01/18 09:38:51;;;;;;;4.40;1.77;;;;;;;;;;6215556;23;20180;-67
2022/01/18 09:41:20;;;;;;;5.03;1.83;;;;;;;;;;6216214;23;20180;-71
2022/01/18 09:43:51;;;;;;;3.47;1.57;;;;;;;;;;6191363;23;20246;-69
2022/01/18 09:46:19;;;;;;;7.27;1.43;;;;;;;;;;6216242;23;20180;-67
2022/01/18 09:48:46;;;;;;;1.97;1.20;;;;;;;;;;6216287;23;20203;-69
2022/01/18 09:51:13;;;;;;;4.70;1.57;;;;;;;;;;6216107;23;20690;-67
2022/01/18 09:53:41;;;;;;;4.20;1.70;;;;;;;;;;6215146;23;20205;-67
2022/01/18 09:56:08;;;;;;;3.17;1.40;;;;;;;;;;6189770;23;20180;-66
2022/01/18 09:58:35;;;;;;;7.53;1.63;;;;;;;;;;6216358;23;20203;-64
2022/01/18 10:01:04;;;;;;;10.90;2.50;;;;;;;;;;6215973;23;20179;-67
2022/01/18 10:03:34;;;;;;;8.73;2.43;;;;;;;;;;6215627;23;20227;-67
2022/01/18 10:06:03;;;;;;;3.90;1.33;;;;;;;;;;6216056;23;20176;-65
2022/01/18 10:08:37;;;;;;;7.10;1.93;;;;;;;;;;6215661;23;20168;-69
2022/01/18 10:11:17;;;;;;;2.87;1.40;;;;;;;;;;6216098;23;20207;-67
2022/01/18 10:13:46;;;;;;;1.80;1.27;;;;;;;;;;6216007;23;20168;-73
2022/01/18 10:16:16;;;;;;;9.53;2.23;;;;;;;;;;6215756;23;20520;-69
2022/01/18 10:18:50;;;;;;;6.77;1.77;;;;;;;;;;6216124;23;20172;-73
2022/01/18 10:21:29;;;;;;;2.57;1.33;;;;;;;;;;6215877;23;20173;-73
2022/01/18 10:24:30;;;;;;;7.37;2.30;;;;;;;;;;6215548;23;20219;-71
2022/01/18 10:26:58;;;;;;;5.23;2.23;;;;;;;;;;6225754;23;20603;-70
2022/01/18 10:29:46;;;;;;;8.80;2.23;;;;;;;;;;6215717;23;20283;-73
2022/01/18 10:32:21;;;;;;;5.63;2.37;;;;;;;;;;6215641;23;20251;-71
2022/01/18 10:37:18;;;;;;;3.87;1.03;;;;;;;;;;6217340;23;20180;-67
2022/01/18 10:39:54;;;;;;;1.37;1.10;;;;;;;;;;6217964;23;20238;-69
2022/01/18 10:42:32;;;;;;;3.33;1.77;;;;;;;;;;6227860;23;20264;-72
2022/01/18 10:45:27;;;;;;;7.20;1.93;;;;;;;;;;6217969;23;20167;-66
2022/01/18 10:48:10;;;;;;;3.90;1.60;;;;;;;;;;6217960;23;20223;-71
2022/01/18 10:50:42;;;;;;;6.83;1.60;;;;;;;;;;6193029;23;20176;-75
2022/01/18 10:53:17;;;;;;;6.37;1.80;;;;;;;;;;6216951;23;20501;-67
2022/01/18 10:55:46;;;;;;;5.57;1.70;;;;;;;;;;6217879;23;20203;-72
2022/01/18 10:58:18;;;;;;;2.50;1.73;;;;;;;;;;6191481;23;20187;-66
2022/01/18 11:00:46;;;;;;;7.17;1.30;;;;;;;;;;6227721;23;20643;-67
2022/01/18 11:03:14;;;;;;;3.00;1.97;;;;;;;;;;6217667;23;20284;-68
2022/01/18 11:05:43;;;;;;;4.07;1.90;;;;;;;;;;6218061;23;20187;-68
2022/01/18 11:08:15;;;;;;;2.00;1.10;;;;;;;;;;6190752;23;20176;-67
2022/01/18 11:10:45;;;;;;;2.97;1.40;;;;;;;;;;6217849;23;20172;-68
2022/01/18 11:13:35;;;;;;;11.03;2.00;;;;;;;;;;6217327;23;20612;-68
2022/01/18 11:16:12;;;;;;;2.13;1.07;;;;;;;;;;6217662;23;20195;-67
2022/01/18 11:18:45;;;;;;;3.13;1.33;;;;;;;;;;6227702;23;20686;-70
2022/01/18 11:21:13;;;;;;;4.10;1.23;;;;;;;;;;6216949;23;20168;-67
2022/01/18 11:23:41;;;;;;;6.47;2.30;;;;;;;;;;6191493;23;20204;-66
2022/01/18 11:26:10;;;;;;;7.07;2.23;;;;;;;;;;6217480;23;20255;-67
2022/01/18 11:28:37;;;;;;;6.83;1.80;;;;;;;;;;6191120;23;20750;-69
2022/01/18 11:31:10;;;;;;;3.90;2.00;;;;;;;;;;6190648;23;20563;-68
2022/01/18 11:33:55;;;;;;;2.23;1.63;;;;;;;;;;6217983;23;20216;-69
2022/01/18 11:36:25;;;;;;;4.07;1.97;;;;;;;;;;6200372;23;20230;-67
2022/01/18 11:38:56;;;;;;;6.23;2.00;;;;;;;;;;6191355;23;20173;-69
2022/01/18 11:41:26;;;;;;;4.87;2.10;;;;;;;;;;6217385;23;20175;-69
2022/01/18 11:43:56;;;;;;;1.57;1.10;;;;;;;;;;6217251;23;20192;-69
2022/01/18 11:46:23;;;;;;;2.90;1.60;;;;;;;;;;6216923;23;20188;-69
2022/01/18 11:49:05;;;;;;;7.17;1.60;;;;;;;;;;6217393;23;20715;-70
2022/01/18 11:51:44;;;;;;;5.57;1.70;;;;;;;;;;6226464;23;20514;-67
2022/01/18 11:54:26;;;;;;;6.77;2.07;;;;;;;;;;6217356;23;20168;-68
2022/01/18 11:56:54;;;;;;;6.80;2.13;;;;;;;;;;6190480;23;20168;-67
2022/01/18 11:59:26;;;;;;;4.63;1.57;;;;;;;;;;6190982;23;20184;-69
2022/01/18 12:01:57;;;;;;;4.60;1.80;;;;;;;;;;6227095;23;20173;-69
2022/01/18 12:04:48;;;;;;;5.93;1.80;;;;;;;;;;6200722;23;20655;-69
2022/01/18 12:07:33;;;;;;;2.93;1.40;;;;;;;;;;6216617;23;20196;-67
2022/01/18 12:10:02;;;;;;;3.47;1.53;;;;;;;;;;6217189;23;20475;-67
2022/01/18 12:12:48;;;;;;;6.17;2.23;;;;;;;;;;6216868;23;20191;-67
2022/01/18 12:15:15;;;;;;;3.10;1.80;;;;;;;;;;6217196;23;20199;-69
2022/01/18 12:17:47;;;;;;;4.50;1.73;;;;;;;;;;6217362;23;20627;-69
2022/01/18 12:20:40;;;;;;;3.03;1.77;;;;;;;;;;6216533;23;20265;-69
2022/01/18 12:23:13;;;;;;;2.70;1.60;;;;;;;;;;6217058;23;20172;-68
2022/01/18 12:34:36;;;;;;;3.93;1.40;;;;;;;;;;6226775;23;20175;-69
2022/01/18 12:37:11;;;;;;;2.97;1.57;;;;;;;;;;6216190;23;20227;-70
2022/01/18 12:39:57;;;;;;;6.23;1.73;;;;;;;;;;6216936;23;20172;-70
2022/01/18 12:44:58;;;;;;;7.30;2.00;;;;;;;;;;6216708;23;20202;-66
2022/01/18 12:47:25;;;;;;;4.10;1.70;;;;;;;;;;6216357;23;20604;-67
2022/01/18 12:49:53;;;;;;;1.90;1.13;;;;;;;;;;6215867;23;20184;-67
2022/01/18 12:52:21;;;;;;;1.87;1.23;;;;;;;;;;6216749;23;20186;-67
2022/01/18 12:54:48;;;;;;;2.60;1.70;;;;;;;;;;6216895;23;20507;-66
2022/01/18 12:57:19;;;;;;;3.47;1.50;;;;;;;;;;6216756;23;20180;-66
2022/01/18 13:00:07;;;;;;;2.80;1.57;;;;;;;;;;6216492;23;20169;-69
2022/01/18 13:02:35;;;;;;;1.97;1.50;;;;;;;;;;6215982;23;20207;-70
2022/01/18 13:05:07;;;;;;;4.33;1.37;;;;;;;;;;6215739;23;20282;-67
2022/01/18 13:07:53;;;;;;;3.30;1.43;;;;;;;;;;6216679;23;20168;-63
2022/01/18 13:10:34;;;;;;;3.77;1.30;;;;;;;;;;6216114;23;20169;-67
2022/01/18 13:13:02;;;;;;;3.43;1.87;;;;;;;;;;6216291;23;20175;-68
2022/01/18 13:15:51;;;;;;;5.87;2.30;;;;;;;;;;6190421;23;20199;-66
2022/01/18 13:26:39;;;;;;;5.77;1.73;;;;;;;;;;6226103;23;20638;-67
2022/01/18 13:29:11;;;;;;;7.20;2.27;;;;;;;;;;6215953;23;20204;-68
2022/01/18 13:31:41;;;;;;;5.00;1.73;;;;;;;;;;6216396;23;20168;-66
2022/01/18 13:34:13;;;;;;;6.00;2.40;;;;;;;;;;6226226;23;20240;-67
2022/01/18 13:36:51;;;;;;;6.97;1.83;;;;;;;;;;6225614;23;20172;-68
2022/01/18 13:39:26;;;;;;;5.87;2.00;;;;;;;;;;6216228;23;20626;-68
2022/01/18 13:41:55;;;;;;;9.63;2.87;;;;;;;;;;6216323;23;20172;-67
2022/01/18 13:44:22;;;;;;;5.97;2.20;;;;;;;;;;6216314;23;20204;-67
2022/01/18 13:46:50;;;;;;;5.13;2.23;;;;;;;;;;6187388;23;20557;-68
2022/01/18 13:49:23;;;;;;;6.30;1.93;;;;;;;;;;6215640;23;20187;-68
2022/01/18 13:52:01;;;;;;;6.30;2.27;;;;;;;;;;6216035;23;20199;-68
2022/01/18 13:54:51;;;;;;;6.00;2.47;;;;;;;;;;6216222;23;20172;-69
2022/01/18 13:57:20;;;;;;;3.87;1.70;;;;;;;;;;6216361;23;20175;-70
2022/01/18 13:59:50;;;;;;;9.83;1.70;;;;;;;;;;6215267;23;20698;-70
2022/01/18 14:02:22;;;;;;;7.33;2.27;;;;;;;;;;6216069;23;20180;-69
2022/01/18 14:05:21;;;;;;;5.13;2.33;;;;;;;;;;6215591;23;20246;-67
2022/01/18 14:07:50;;;;;;;4.07;1.87;;;;;;;;;;6187357;23;20208;-69
2022/01/18 14:10:21;;;;;;;7.10;2.20;;;;;;;;;;6215655;23;20180;-68
2022/01/18 14:12:50;;;;;;;7.63;2.33;;;;;;;;;;6189793;23;20626;-68
2022/01/18 14:15:36;;;;;;;5.50;2.50;;;;;;;;;;6189384;23;20536;-68
2022/01/18 14:18:04;;;;;;;4.20;2.00;;;;;;;;;;6215832;23;20237;-69
2022/01/18 14:20:32;;;;;;;5.77;2.57;;;;;;;;;;6214494;23;20608;-68
2022/01/18 14:23:00;;;;;;;8.90;2.93;;;;;;;;;;6215939;23;20180;-70
2022/01/18 14:25:31;;;;;;;6.73;2.80;;;;;;;;;;6215652;23;20271;-68
2022/01/18 14:28:14;;;;;;;12.03;3.33;;;;;;;;;;6222266;23;20186;-65
2022/01/18 14:30:43;;;;;;;8.57;2.67;;;;;;;;;;6214808;23;20255;-65
2022/01/18 14:33:12;;;;;;;9.23;3.40;;;;;;;;;;6215048;23;20564;-66
2022/01/18 14:35:42;;;;;;;11.50;3.10;;;;;;;;;;6215335;23;20234;-66
2022/01/18 14:38:11;;;;;;;6.83;2.70;;;;;;;;;;6225815;23;20164;-65
2022/01/18 14:40:42;;;;;;;11.83;3.00;;;;;;;;;;6215793;23;20187;-65
2022/01/18 14:43:14;;;;;;;12.43;2.87;;;;;;;;;;6189874;23;20243;-67
2022/01/18 14:48:27;;;;;;;6.77;2.43;;;;;;;;;;6216086;23;20172;-67
2022/01/18 14:50:55;;;;;;;5.57;2.83;;;;;;;;;;6215292;23;20544;-66
2022/01/18 14:53:25;;;;;;;8.03;2.93;;;;;;;;;;6215839;23;20180;-67
2022/01/18 14:55:55;;;;;;;7.50;2.27;;;;;;;;;;6215981;23;20264;-68
2022/01/18 14:58:23;;;;;;;6.47;2.20;;;;;;;;;;6215824;23;20228;-68
2022/01/18 15:00:52;;;;;;;9.47;3.00;;;;;;;;;;6214793;23;20206;-71
2022/01/18 15:03:20;;;;;;;8.57;2.87;;;;;;;;;;6215663;23;20176;-70
2022/01/18 15:05:47;;;;;;;8.00;2.43;;;;;;;;;;6189045;23;20200;-69
2022/01/18 15:08:15;;;;;;;6.37;2.57;;;;;;;;;;6215652;23;20184;-71
2022/01/18 15:10:42;;;;;;;8.93;2.87;;;;;;;;;;6215550;23;20604;-67
2022/01/18 15:13:09;;;;;;;7.57;2.47;;;;;;;;;;6215372;23;20267;-68
2022/01/18 15:15:37;;;;;;;8.87;2.83;;;;;;;;;;6213525;23;20234;-68
2022/01/18 15:18:04;;;;;;;8.70;2.80;;;;;;;;;;6215841;23;20184;-68
2022/01/18 15:20:32;;;;;;;7.57;2.70;;;;;;;;;;6214915;23;20187;-69
2022/01/18 15:23:05;;;;;;;5.50;2.63;;;;;;;;;;6227133;23;20168;-69
2022/01/18 15:25:53;;;;;;;10.63;2.80;;;;;;;;;;6217783;23;20203;-68
2022/01/18 15:28:20;;;;;;;6.20;2.93;;;;;;;;;;6217357;23;20228;-69
2022/01/18 15:30:47;;;;;;;8.70;3.13;;;;;;;;;;6227401;23;20502;-68
2022/01/18 15:33:14;;;;;;;8.77;2.93;;;;;;;;;;6216901;23;20184;-69
2022/01/18 15:35:42;;;;;;;11.30;3.43;;;;;;;;;;6217405;23;20180;-70
2022/01/18 15:38:09;;;;;;;8.20;3.27;;;;;;;;;;6217152;23;20180;-69
2022/01/18 15:40:37;;;;;;;10.73;3.63;;;;;;;;;;6216762;23;20186;-68
2022/01/18 15:43:04;;;;;;;10.63;3.50;;;;;;;;;;6217063;23;20184;-69
2022/01/18 15:45:31;;;;;;;10.83;3.90;;;;;;;;;;6190528;23;20207;-69
2022/01/18 15:47:58;;;;;;;12.63;4.77;;;;;;;;;;6216562;23;20187;-64
2022/01/18 15:50:26;;;;;;;13.07;3.33;;;;;;;;;;6217003;23;20198;-70
2022/01/18 15:52:53;;;;;;;13.57;3.90;;;;;;;;;;6216566;23;20483;-67
2022/01/18 15:55:20;;;;;;;17.87;5.60;;;;;;;;;;6216309;23;20754;-68
2022/01/18 15:57:47;;;;;;;16.47;5.07;;;;;;;;;;6216894;23;20187;-68
2022/01/18 16:00:15;;;;;;;11.00;4.33;;;;;;;;;;6216710;23;20631;-68
2022/01/18 16:02:43;;;;;;;12.07;4.10;;;;;;;;;;6216772;23;20238;-68
2022/01/18 16:05:10;;;;;;;10.87;3.60;;;;;;;;;;6215946;23;20200;-68
2022/01/18 16:07:38;;;;;;;15.43;4.60;;;;;;;;;;6216791;23;20184;-68
2022/01/18 16:10:05;;;;;;;21.87;7.93;;;;;;;;;;6216677;23;20184;-66
2022/01/18 16:12:33;;;;;;;24.23;8.13;;;;;;;;;;6216634;23;20206;-69
2022/01/18 16:15:01;;;;;;;16.90;6.90;;;;;;;;;;6216483;23;20616;-70
2022/01/18 16:17:29;;;;;;;22.00;7.47;;;;;;;;;;6216725;23;20186;-72
2022/01/18 16:19:57;;;;;;;19.63;6.80;;;;;;;;;;6216582;23;20180;-70
2022/01/18 16:22:24;;;;;;;16.87;5.87;;;;;;;;;;6216517;23;20214;-69
2022/01/18 16:24:53;;;;;;;15.70;5.93;;;;;;;;;;6216530;23;20207;-70
2022/01/18 16:27:20;;;;;;;12.23;5.37;;;;;;;;;;6216446;23;20180;-69
2022/01/18 16:29:52;;;;;;;17.40;5.80;;;;;;;;;;6216204;23;20203;-70
2022/01/18 16:32:19;;;;;;;16.07;6.23;;;;;;;;;;6216468;23;20218;-69
2022/01/18 16:34:47;;;;;;;17.03;6.27;;;;;;;;;;6215825;23;20180;-69
2022/01/18 16:37:14;;;;;;;15.63;7.00;;;;;;;;;;6190259;23;20501;-69
2022/01/18 16:39:41;;;;;;;20.47;8.20;;;;;;;;;;6216595;23;20230;-70
2022/01/18 16:42:09;;;;;;;20.37;8.60;;;;;;;;;;6190252;23;20186;-69
2022/01/18 16:44:37;;;;;;;17.57;7.87;;;;;;;;;;6216057;23;20632;-70